Time;durP1;ratioP1;P1;durP2;ratioP2;P2;SDS_P1;SDS_P2;PMS_P1;PMS_P2;Temp;Humidity;BMP_temperature;BMP_pressure;BME280_temperature;BME280_humidity;BME280_pressure;Samples;Min_cycle;Max_cycle;Signal;HPM_P1;HPM_P2
2022/04/10 00:02:16;;;;;;;11.63;4.05;;;5.60;99.30;;;2.47;100.00;100704.25;4991974;28;20130;-83
2022/04/10 00:04:43;;;;;;;7.85;3.72;;;5.60;99.20;;;2.48;100.00;100708.66;4991855;28;20117;-83
2022/04/10 00:07:11;;;;;;;10.57;3.95;;;5.60;99.40;;;2.44;100.00;100712.56;4990481;28;20507;-83
2022/04/10 00:09:39;;;;;;;9.15;3.92;;;5.50;99.30;;;2.39;100.00;100709.41;4991440;28;20511;-83
2022/04/10 00:12:08;;;;;;;13.43;4.32;;;5.50;99.40;;;2.30;100.00;100706.50;4990939;28;20503;-83
2022/04/10 00:14:36;;;;;;;11.32;4.35;;;5.50;99.40;;;2.26;100.00;100715.75;4991639;28;20057;-83
2022/04/10 00:17:04;;;;;;;11.07;4.70;;;5.40;99.40;;;2.20;100.00;100713.59;4991717;28;20049;-83
2022/04/10 00:19:31;;;;;;;11.02;4.47;;;5.40;99.70;;;2.15;100.00;100716.66;4990028;28;20050;-83
2022/04/10 00:21:58;;;;;;;10.85;4.40;;;5.40;99.50;;;2.19;100.00;100713.72;4990701;28;20388;-83
2022/04/10 00:24:26;;;;;;;10.25;4.47;;;5.30;99.70;;;2.20;100.00;100712.75;4991286;28;20034;-83
2022/04/10 00:26:55;;;;;;;15.95;4.93;;;5.30;99.80;;;2.16;100.00;100717.50;4991677;28;20052;-83
2022/04/10 00:29:22;;;;;;;10.85;4.35;;;5.30;99.70;;;2.14;100.00;100722.16;4991496;28;20038;-83
2022/04/10 00:31:50;;;;;;;11.00;4.20;;;5.30;99.90;;;2.19;100.00;100729.81;4988864;28;20042;-83
2022/04/10 00:34:18;;;;;;;13.77;4.43;;;5.30;99.90;;;2.09;100.00;100732.41;4991521;28;20044;-83
2022/04/10 00:36:45;;;;;;;11.07;4.40;;;5.20;99.90;;;2.05;100.00;100726.44;4991274;28;20046;-83
2022/04/10 00:39:12;;;;;;;13.73;5.20;;;5.20;99.90;;;1.97;100.00;100725.38;4988544;28;20380;-83
2022/04/10 00:41:40;;;;;;;10.20;4.25;;;5.20;99.90;;;2.00;100.00;100719.72;4990497;28;20050;-83
2022/04/10 00:44:11;;;;;;;12.55;4.68;;;5.10;99.90;;;1.90;100.00;100720.47;4991274;28;20117;-83
2022/04/10 00:46:39;;;;;;;9.80;4.72;;;5.10;99.90;;;1.86;100.00;100727.06;4990475;28;20046;-83
2022/04/10 00:49:07;;;;;;;10.00;4.40;;;5.10;99.90;;;1.84;100.00;100726.34;4989391;28;20141;-83
2022/04/10 00:51:41;;;;;;;13.75;5.50;;;5.00;99.90;;;1.89;100.00;100729.50;4990307;28;20090;-83
2022/04/10 00:54:11;;;;;;;11.60;4.55;;;5.00;99.90;;;1.90;100.00;100731.19;4989388;28;20053;-83
2022/04/10 00:56:39;;;;;;;10.52;4.93;;;5.00;99.90;;;1.89;100.00;100724.13;4990882;28;20038;-83
2022/04/10 00:59:08;;;;;;;14.20;4.80;;;5.00;99.90;;;1.86;100.00;100727.06;4990919;28;20121;-83
2022/04/10 01:01:37;;;;;;;17.20;4.93;;;5.00;99.90;;;1.82;100.00;100733.66;4989863;28;20074;-83
2022/04/10 01:04:06;;;;;;;9.60;4.40;;;5.00;99.90;;;1.85;100.00;100732.56;4989652;28;20054;-82
2022/04/10 01:06:35;;;;;;;13.80;4.95;;;4.90;99.90;;;1.98;100.00;100743.16;4989231;28;20053;-83
2022/04/10 01:09:04;;;;;;;12.85;4.80;;;5.00;99.90;;;1.86;100.00;100735.09;4989415;28;20514;-83
2022/04/10 01:11:31;;;;;;;13.40;5.13;;;5.00;99.90;;;1.83;100.00;100746.09;4989746;28;20340;-82
2022/04/10 01:14:00;;;;;;;11.90;4.80;;;4.90;99.90;;;1.89;100.00;100745.63;4989472;28;20049;-83
2022/04/10 01:16:30;;;;;;;8.70;4.40;;;4.90;99.90;;;1.92;100.00;100744.50;4988345;28;20050;-83
2022/04/10 01:18:59;;;;;;;12.43;4.88;;;4.90;99.90;;;2.00;100.00;100746.56;4989352;28;20046;-82
2022/04/10 01:21:29;;;;;;;14.57;4.85;;;4.90;99.90;;;1.86;100.00;100745.84;4983859;28;20039;-83
2022/04/10 01:24:01;;;;;;;11.43;5.03;;;4.90;99.90;;;1.89;100.00;100750.97;4987970;28;20057;-83
2022/04/10 01:26:29;;;;;;;10.05;4.65;;;4.90;99.90;;;1.90;100.00;100747.31;4988513;28;20042;-82
2022/04/10 01:28:59;;;;;;;9.65;4.45;;;4.90;99.90;;;1.91;100.00;100743.66;4988899;28;20064;-82
2022/04/10 01:31:31;;;;;;;12.00;4.72;;;4.90;99.90;;;1.90;100.00;100743.78;4986139;28;20551;-82
2022/04/10 01:34:02;;;;;;;13.05;4.50;;;4.90;99.90;;;1.82;100.00;100747.06;4989248;28;20145;-82
2022/04/10 01:36:32;;;;;;;11.70;4.70;;;4.80;99.90;;;1.81;100.00;100745.38;4990212;28;20045;-82
2022/04/10 01:39:04;;;;;;;11.82;4.93;;;4.90;99.90;;;1.73;100.00;100742.44;4987775;28;20421;-82
2022/04/10 01:41:34;;;;;;;10.93;5.00;;;4.90;99.90;;;1.75;100.00;100738.66;4988056;28;20074;-82
2022/04/10 01:44:04;;;;;;;11.32;4.30;;;4.90;99.90;;;1.72;100.00;100732.69;4980785;28;20153;-82
2022/04/10 01:46:34;;;;;;;9.30;4.43;;;4.80;99.90;;;1.69;100.00;100738.28;5004291;28;20085;-82
2022/04/10 01:49:02;;;;;;;13.93;5.03;;;4.80;99.90;;;1.65;100.00;100736.84;4988805;28;20561;-82
2022/04/10 01:51:30;;;;;;;10.15;4.93;;;4.80;99.90;;;1.67;100.00;100745.59;4989087;28;20556;-83
2022/04/10 01:53:58;;;;;;;12.57;4.90;;;4.80;99.90;;;1.63;100.00;100734.25;4988823;28;20414;-82
2022/04/10 01:56:26;;;;;;;11.93;5.15;;;4.80;99.90;;;1.60;100.00;100744.38;4989613;28;20074;-82
2022/04/10 01:58:54;;;;;;;14.55;5.22;;;4.70;99.90;;;1.55;100.00;100736.72;4988568;28;20467;-82
2022/04/10 02:01:23;;;;;;;12.45;4.57;;;4.70;99.90;;;1.62;100.00;100737.06;4987196;28;20058;-83
2022/04/10 02:03:53;;;;;;;10.25;4.72;;;4.70;99.90;;;1.59;100.00;100738.16;4988820;28;20694;-83
2022/04/10 02:06:20;;;;;;;12.68;5.30;;;4.70;99.90;;;1.60;100.00;100725.59;4989837;28;20058;-82
2022/04/10 02:08:53;;;;;;;12.23;4.32;;;4.70;99.90;;;1.58;100.00;100735.59;4988337;28;20057;-83
2022/04/10 02:11:23;;;;;;;12.65;5.43;;;4.70;99.90;;;1.54;100.00;100737.66;4983343;28;20100;-82
2022/04/10 02:13:56;;;;;;;13.10;5.15;;;4.70;99.90;;;1.53;100.00;100736.81;4988811;28;20054;-82
2022/04/10 02:16:24;;;;;;;11.93;4.95;;;4.70;99.90;;;1.53;100.00;100727.94;4987614;28;20503;-82
2022/04/10 02:18:51;;;;;;;11.57;4.80;;;4.60;99.90;;;1.42;100.00;100731.44;4988346;28;20042;-83
2022/04/10 02:21:18;;;;;;;12.63;4.93;;;4.60;99.90;;;1.31;100.00;100729.63;4987535;28;20074;-83
2022/04/10 02:23:47;;;;;;;13.18;4.60;;;4.60;99.90;;;1.35;100.00;100743.63;4988742;28;20057;-82
2022/04/10 02:26:14;;;;;;;12.43;4.93;;;4.60;99.90;;;1.44;100.00;100737.53;4989417;28;20042;-82
2022/04/10 02:28:42;;;;;;;14.20;5.30;;;4.50;99.90;;;1.48;100.00;100741.69;4988241;28;20046;-83
2022/04/10 02:31:12;;;;;;;14.55;4.75;;;4.50;99.90;;;1.41;100.00;100737.81;4987796;28;20054;-82
2022/04/10 02:33:40;;;;;;;14.85;5.65;;;4.50;99.90;;;1.36;100.00;100745.34;4988087;28;20148;-83
2022/04/10 02:36:07;;;;;;;15.65;5.35;;;4.50;99.90;;;1.47;100.00;100745.34;4991974;28;20507;-82
2022/04/10 02:38:38;;;;;;;16.73;5.30;;;4.50;99.90;;;1.60;100.00;100739.00;4990653;28;20093;-82
2022/04/10 02:41:06;;;;;;;13.93;5.15;;;4.50;99.90;;;1.63;100.00;100738.78;4992448;28;20518;-82
2022/04/10 02:43:34;;;;;;;13.95;5.22;;;4.50;99.90;;;1.53;100.00;100752.06;4991903;28;20038;-83
2022/04/10 02:46:04;;;;;;;14.45;5.10;;;4.50;99.90;;;1.47;100.00;100748.03;4977460;28;20054;-82
2022/04/10 02:48:36;;;;;;;14.25;5.38;;;4.50;99.90;;;1.48;100.00;100755.09;4991861;28;20501;-82
2022/04/10 02:51:05;;;;;;;14.65;4.90;;;4.50;99.90;;;1.44;100.00;100752.78;5007771;28;20073;-82
2022/04/10 02:53:33;;;;;;;14.05;5.00;;;4.50;99.90;;;1.47;100.00;100749.88;4991477;28;20050;-82
2022/04/10 02:56:01;;;;;;;13.90;4.97;;;4.50;99.90;;;1.44;100.00;100750.94;4992022;28;20050;-82
2022/04/10 02:58:28;;;;;;;14.10;4.78;;;4.50;99.90;;;1.48;100.00;100760.47;4988234;28;20130;-82
2022/04/10 03:00:55;;;;;;;16.75;5.80;;;4.50;99.90;;;1.45;100.00;100757.19;4973082;28;20483;-82
2022/04/10 03:03:23;;;;;;;11.80;4.90;;;4.50;99.90;;;1.45;100.00;100762.56;4984225;28;20050;-82
2022/04/10 03:05:51;;;;;;;11.90;4.63;;;4.50;99.90;;;1.40;100.00;100765.56;4991768;28;20072;-82
2022/04/10 03:08:20;;;;;;;12.38;5.57;;;4.50;99.90;;;1.46;100.00;100770.47;4991139;28;20050;-82
2022/04/10 03:10:48;;;;;;;13.98;5.60;;;4.50;99.90;;;1.43;100.00;100765.34;4990533;28;20301;-82
2022/04/10 03:13:16;;;;;;;13.35;4.93;;;4.50;99.90;;;1.47;100.00;100769.50;4992944;28;20513;-82
2022/04/10 03:15:43;;;;;;;16.55;5.20;;;4.50;99.90;;;1.48;100.00;100773.03;4991716;28;20085;-83
2022/04/10 03:18:11;;;;;;;14.75;5.30;;;4.40;99.90;;;1.52;100.00;100775.38;4991033;28;20046;-82
2022/04/10 03:20:38;;;;;;;16.55;4.90;;;4.50;99.90;;;1.57;100.00;100775.00;4984178;28;20054;-82
2022/04/10 03:23:08;;;;;;;12.77;5.40;;;4.50;99.90;;;1.50;100.00;100777.28;4987111;28;20459;-82
2022/04/10 03:25:37;;;;;;;11.77;4.97;;;4.60;99.90;;;1.48;100.00;100773.88;4991418;28;20069;-82
2022/04/10 03:28:05;;;;;;;14.10;4.60;;;4.50;99.90;;;1.49;100.00;100777.44;4991142;28;20489;-82
2022/04/10 03:30:33;;;;;;;12.88;5.68;;;4.50;99.90;;;1.48;100.00;100773.88;4988284;28;20050;-82
2022/04/10 03:33:00;;;;;;;14.25;5.38;;;4.50;99.90;;;1.45;100.00;100779.50;4991397;28;20503;-82
2022/04/10 03:35:30;;;;;;;19.27;5.53;;;4.50;99.90;;;1.44;100.00;100783.13;4990936;28;20419;-82
2022/04/10 03:38:00;;;;;;;17.85;6.18;;;4.50;99.90;;;1.48;100.00;100778.38;4991034;28;20122;-82
2022/04/10 03:40:28;;;;;;;16.80;5.72;;;4.50;99.90;;;1.50;100.00;100779.13;4990246;28;20142;-82
2022/04/10 03:42:56;;;;;;;8.85;4.63;;;4.50;99.90;;;1.56;100.00;100781.31;4978035;28;20117;-82
2022/04/10 03:45:24;;;;;;;14.60;5.20;;;4.50;99.90;;;1.60;100.00;100771.19;4989968;28;20042;-82
2022/04/10 03:47:51;;;;;;;13.55;5.38;;;4.50;99.90;;;1.55;100.00;100775.09;4990064;28;20061;-82
2022/04/10 03:50:19;;;;;;;12.77;5.63;;;4.50;99.90;;;1.47;100.00;100779.38;4989720;28;20050;-82
2022/04/10 03:52:46;;;;;;;14.82;5.90;;;4.50;99.90;;;1.45;100.00;100781.31;4990878;28;20061;-82
2022/04/10 03:55:14;;;;;;;13.57;5.35;;;4.50;99.90;;;1.45;100.00;100784.00;4991740;28;20054;-81
2022/04/10 03:57:43;;;;;;;14.50;6.20;;;4.50;99.90;;;1.46;100.00;100783.88;4990956;28;20085;-82
2022/04/10 04:00:12;;;;;;;13.57;5.70;;;4.50;99.90;;;1.44;100.00;100791.19;4987143;28;20046;-82
2022/04/10 04:02:43;;;;;;;12.32;5.85;;;4.40;99.90;;;1.51;100.00;100792.41;4991993;28;20054;-82
2022/04/10 04:05:18;;;;;;;16.42;6.15;;;4.50;99.90;;;1.51;100.00;100799.63;4990860;28;20100;-82
2022/04/10 04:07:46;;;;;;;17.15;5.72;;;4.50;99.90;;;1.50;100.00;100801.41;4990510;28;20054;-82
2022/04/10 04:10:14;;;;;;;14.25;5.63;;;4.50;99.90;;;1.52;100.00;100795.94;4989935;28;20534;-82
2022/04/10 04:12:43;;;;;;;14.82;5.97;;;4.50;99.90;;;1.50;100.00;100800.56;4990025;28;20157;-82
2022/04/10 04:15:12;;;;;;;14.00;5.72;;;4.40;99.90;;;1.47;100.00;100809.72;4991634;28;20121;-82
2022/04/10 04:17:39;;;;;;;15.65;5.85;;;4.50;99.90;;;1.50;100.00;100804.09;4989184;28;20061;-81
2022/04/10 04:20:08;;;;;;;17.85;6.22;;;4.40;99.90;;;1.48;100.00;100803.38;4989506;28;20127;-82
2022/04/10 04:22:36;;;;;;;14.80;6.10;;;4.50;99.90;;;1.47;100.00;100815.09;4986880;28;20045;-82
2022/04/10 04:25:06;;;;;;;16.08;6.18;;;4.50;99.90;;;1.45;100.00;100811.66;4990076;28;20054;-82
2022/04/10 04:27:34;;;;;;;18.45;6.13;;;4.50;99.90;;;1.42;100.00;100819.94;5002906;28;20046;-80
2022/04/10 04:30:04;;;;;;;15.10;6.07;;;4.50;99.90;;;1.43;100.00;100810.94;4978609;28;20046;-83
2022/04/10 04:32:32;;;;;;;16.30;6.43;;;4.40;99.90;;;1.45;100.00;100821.56;4990234;28;20081;-84
2022/04/10 04:35:00;;;;;;;14.85;5.32;;;4.40;99.90;;;1.42;100.00;100819.94;4989950;28;20073;-84
2022/04/10 04:37:27;;;;;;;15.00;5.85;;;4.40;99.90;;;1.45;100.00;100824.22;4989770;28;20058;-83
2022/04/10 04:39:54;;;;;;;16.73;5.88;;;4.40;99.90;;;1.36;100.00;100832.00;4987450;28;20534;-83
2022/04/10 04:42:22;;;;;;;14.50;5.85;;;4.40;99.90;;;1.29;100.00;100838.78;4989860;28;20061;-83
2022/04/10 04:44:50;;;;;;;17.13;5.70;;;4.40;99.90;;;1.37;100.00;100832.84;4990039;28;20053;-84
2022/04/10 04:47:20;;;;;;;15.38;6.00;;;4.40;99.90;;;1.33;100.00;100836.72;4989066;28;20510;-83
2022/04/10 04:49:47;;;;;;;15.63;6.53;;;4.30;99.90;;;1.33;100.00;100844.78;4989499;28;20056;-84
2022/04/10 04:52:16;;;;;;;17.02;6.30;;;4.30;99.90;;;1.26;100.00;100844.41;4989400;28;20137;-84
2022/04/10 04:54:43;;;;;;;22.90;8.23;;;4.30;99.90;;;1.21;100.00;100841.19;4989776;28;20050;-84
2022/04/10 04:57:11;;;;;;;14.38;6.22;;;4.50;99.90;;;1.27;100.00;100842.56;4987739;28;20074;-84
2022/04/10 04:59:41;;;;;;;20.35;6.88;;;4.30;99.90;;;1.33;100.00;100844.78;4989460;28;20077;-84
2022/04/10 05:02:09;;;;;;;26.10;7.60;;;4.30;99.90;;;1.35;100.00;100848.19;4988662;28;20050;-84
2022/04/10 05:04:38;;;;;;;18.23;6.82;;;4.30;99.90;;;1.31;100.00;100862.81;4989738;28;20053;-84
2022/04/10 05:07:06;;;;;;;18.42;7.20;;;4.30;99.90;;;1.25;100.00;100860.59;4970446;28;20089;-83
2022/04/10 05:09:33;;;;;;;18.58;6.88;;;4.30;99.90;;;1.21;100.00;100864.50;4976411;28;20053;-83
2022/04/10 05:12:01;;;;;;;18.52;7.20;;;4.30;99.90;;;1.32;100.00;100872.56;4988734;28;20575;-83
2022/04/10 05:14:28;;;;;;;17.15;6.90;;;4.30;99.90;;;1.33;100.00;100867.09;4989025;28;20046;-83
2022/04/10 05:16:56;;;;;;;25.40;7.97;;;4.30;99.90;;;1.34;100.00;100867.94;4989126;28;20129;-83
2022/04/10 05:19:26;;;;;;;19.08;7.15;;;4.30;99.90;;;1.42;100.00;100875.41;5005694;28;20058;-84
2022/04/10 05:21:56;;;;;;;24.55;8.45;;;4.30;99.90;;;1.42;100.00;100878.94;4988444;28;20046;-83
2022/04/10 05:24:25;;;;;;;19.25;7.18;;;4.30;99.90;;;1.48;100.00;100869.56;4989256;28;20510;-83
2022/04/10 05:26:52;;;;;;;20.73;7.60;;;4.30;99.90;;;1.44;100.00;100874.31;4989014;28;20046;-84
2022/04/10 05:29:19;;;;;;;16.27;7.13;;;4.30;99.90;;;1.52;100.00;100876.41;4989730;28;20045;-83
2022/04/10 05:31:47;;;;;;;24.60;8.27;;;4.40;99.90;;;1.65;100.00;100887.91;4987101;28;20054;-83
2022/04/10 05:34:14;;;;;;;16.00;7.45;;;4.40;99.90;;;1.69;100.00;100877.78;4982185;28;20050;-83
2022/04/10 05:36:43;;;;;;;17.50;7.32;;;4.40;99.90;;;1.83;100.00;100882.97;4982863;28;20057;-83
2022/04/10 05:39:11;;;;;;;16.67;7.82;;;4.50;99.90;;;1.89;100.00;100877.13;4999601;28;20579;-83
2022/04/10 05:41:39;;;;;;;20.60;8.35;;;4.50;99.90;;;2.00;100.00;100881.66;4985640;28;20439;-83
2022/04/10 05:44:11;;;;;;;21.00;7.72;;;4.60;99.90;;;2.10;100.00;100876.41;4988061;28;20046;-83
2022/04/10 05:46:39;;;;;;;15.30;7.70;;;4.60;99.90;;;2.08;100.00;100879.22;4988604;28;20050;-84
2022/04/10 05:49:08;;;;;;;22.52;7.45;;;4.70;99.90;;;2.18;100.00;100890.06;4988285;28;20045;-83
2022/04/10 05:51:36;;;;;;;20.75;8.00;;;4.70;99.90;;;2.25;100.00;100885.94;4989404;28;20038;-83
2022/04/10 05:54:03;;;;;;;22.60;8.73;;;4.80;99.90;;;2.34;100.00;100887.03;4988567;28;20068;-82
2022/04/10 05:56:38;;;;;;;22.50;7.55;;;4.80;99.90;;;2.45;100.00;100883.47;4981247;28;20057;-82
2022/04/10 05:59:06;;;;;;;24.02;7.70;;;4.90;99.90;;;2.48;100.00;100885.94;4985438;28;20047;-83
2022/04/10 06:01:33;;;;;;;18.50;7.80;;;4.90;99.90;;;2.53;100.00;100883.72;4973165;28;20142;-84
2022/04/10 06:04:01;;;;;;;17.75;8.00;;;4.90;99.90;;;2.57;100.00;100890.56;4988611;28;20046;-84
2022/04/10 06:06:28;;;;;;;18.80;7.45;;;5.00;99.90;;;2.67;100.00;100896.06;4988317;28;20051;-89
2022/04/10 06:09:03;;;;;;;20.60;8.77;;;5.10;99.90;;;2.91;100.00;100904.81;4988200;28;20569;-85
2022/04/10 06:11:32;;;;;;;20.63;7.68;;;5.20;99.90;;;3.04;100.00;100899.25;4987094;28;20470;-85
2022/04/10 06:14:01;;;;;;;22.20;8.30;;;5.10;99.90;;;3.17;100.00;100909.03;4988685;28;20077;-80
2022/04/10 06:16:30;;;;;;;19.77;8.00;;;5.20;99.90;;;3.27;100.00;100905.41;4987939;28;20042;-81
2022/04/10 06:18:58;;;;;;;16.38;8.18;;;5.20;99.90;;;3.37;100.00;100905.53;4987881;28;20054;-79
2022/04/10 06:21:27;;;;;;;18.27;8.05;;;5.30;99.90;;;3.45;100.00;100911.13;4987586;28;20101;-78
2022/04/10 06:23:54;;;;;;;18.83;7.45;;;5.40;99.90;;;3.59;100.00;100914.47;4988420;28;20074;-78
2022/04/10 06:26:33;;;;;;;23.65;9.10;;;5.40;99.90;;;3.71;100.00;100913.44;4988058;28;20178;-77
2022/04/10 06:29:03;;;;;;;19.08;7.80;;;5.50;99.90;;;3.76;100.00;100913.91;4986848;28;20046;-78
2022/04/10 06:31:59;;;;;;;17.45;8.07;;;5.60;99.90;;;3.74;99.86;100913.19;4981724;28;20484;-81
2022/04/10 06:34:31;;;;;;;19.38;8.52;;;5.60;99.90;;;3.83;100.00;100916.94;4999963;28;20068;-81
2022/04/10 06:36:59;;;;;;;17.55;7.78;;;5.70;99.90;;;4.02;99.71;100918.91;4987572;28;20058;-81
2022/04/10 06:39:26;;;;;;;22.48;8.45;;;5.80;99.90;;;4.19;98.43;100917.41;4986711;28;20050;-83
2022/04/10 06:41:56;;;;;;;14.38;7.38;;;5.90;99.90;;;4.34;98.84;100912.53;4969840;28;20511;-79
2022/04/10 06:44:43;;;;;;;17.92;8.15;;;6.00;99.90;;;4.45;98.02;100917.84;4975390;28;20061;-79
2022/04/10 06:47:17;;;;;;;19.20;8.35;;;6.10;99.90;;;4.56;96.91;100923.13;4985998;28;20046;-80
2022/04/10 06:49:45;;;;;;;22.95;9.45;;;6.20;99.90;;;4.67;96.88;100923.03;4985792;28;20797;-79
2022/04/10 06:52:12;;;;;;;23.25;8.23;;;6.30;99.90;;;4.76;96.96;100920.50;4987493;28;20046;-79
2022/04/10 06:54:42;;;;;;;17.88;8.68;;;6.40;99.90;;;4.88;97.21;100920.28;4987846;28;20050;-78
2022/04/10 06:57:10;;;;;;;17.80;8.45;;;6.50;99.90;;;5.00;96.33;100926.41;4988218;28;20459;-78
2022/04/10 06:59:38;;;;;;;17.95;8.43;;;6.50;99.90;;;5.11;95.63;100927.28;4988634;28;20052;-78
2022/04/10 07:02:10;;;;;;;18.35;8.43;;;6.60;99.90;;;5.22;95.47;100932.56;4977443;28;20054;-78
2022/04/10 07:04:39;;;;;;;18.30;7.38;;;6.70;99.90;;;5.33;94.02;100931.56;4974546;28;20061;-79
2022/04/10 07:07:08;;;;;;;21.85;7.35;;;6.80;99.90;;;5.47;94.69;100936.56;4986947;28;20046;-80
2022/04/10 07:09:35;;;;;;;18.20;7.05;;;6.90;99.90;;;5.56;93.42;100930.31;4987050;28;20055;-80
2022/04/10 07:12:04;;;;;;;15.07;6.65;;;7.00;99.90;;;5.67;93.20;100942.81;4987435;28;20093;-80
2022/04/10 07:14:37;;;;;;;16.95;6.60;;;7.10;99.60;;;5.80;92.60;100943.38;4981201;28;20056;-81
2022/04/10 07:17:05;;;;;;;13.20;5.80;;;7.20;99.40;;;5.92;92.43;100938.69;4978995;28;20116;-79
2022/04/10 07:19:34;;;;;;;11.63;6.18;;;7.30;99.10;;;6.08;92.52;100946.22;4988522;28;20061;-79
2022/04/10 07:24:47;;;;;;;15.13;6.32;;;7.50;98.00;;;6.48;89.18;100952.41;4991598;28;20046;-79
2022/04/10 07:27:14;;;;;;;14.15;6.43;;;7.70;96.70;;;6.51;90.06;100952.97;4991915;28;20082;-79
2022/04/10 07:29:53;;;;;;;16.85;6.55;;;7.80;97.60;;;6.53;89.82;100956.38;4991096;28;20526;-79
2022/04/10 07:32:26;;;;;;;14.15;6.40;;;7.80;97.70;;;6.51;88.11;100952.09;4991784;28;20061;-79
2022/04/10 07:35:05;;;;;;;16.65;6.60;;;7.90;96.80;;;6.50;89.25;100951.25;4991556;28;20077;-79
2022/04/10 07:37:58;;;;;;;18.20;7.22;;;7.90;97.00;;;6.62;88.73;100960.88;4989775;28;20054;-79
2022/04/10 07:40:26;;;;;;;16.88;6.20;;;8.00;96.50;;;6.75;88.18;100965.09;4992646;28;20122;-79
2022/04/10 07:42:57;;;;;;;16.33;6.88;;;8.00;96.80;;;6.81;88.22;100964.50;4991478;28;20861;-79
2022/04/10 07:48:27;;;;;;;16.30;6.43;;;8.30;97.80;;;7.02;87.92;100965.09;4991361;28;20054;-79
2022/04/10 07:50:57;;;;;;;15.25;7.25;;;8.40;96.50;;;7.11;87.43;100966.06;4990562;28;20588;-79
2022/04/10 07:53:29;;;;;;;17.15;6.60;;;8.40;96.30;;;7.18;86.88;100967.19;4991240;28;20042;-79
2022/04/10 07:56:01;;;;;;;15.25;6.53;;;8.50;95.50;;;7.28;86.11;100967.13;4991323;28;20046;-79
2022/04/10 07:58:28;;;;;;;15.57;6.43;;;8.60;95.30;;;7.37;86.26;100977.03;4991257;28;20078;-79
2022/04/10 08:00:56;;;;;;;12.20;6.07;;;8.60;95.80;;;7.47;85.86;100973.41;4990511;28;20534;-79
2022/04/10 08:03:24;;;;;;;16.92;6.60;;;8.70;95.10;;;7.51;85.25;100980.22;4991181;28;20050;-79
2022/04/10 08:05:52;;;;;;;16.13;6.32;;;8.80;95.30;;;7.58;85.61;100979.47;4992697;28;20057;-79
2022/04/10 08:08:46;;;;;;;13.88;6.50;;;8.80;95.30;;;7.68;85.17;100986.66;4989454;28;20058;-79
2022/04/10 08:11:14;;;;;;;16.77;6.35;;;8.90;95.00;;;7.76;85.23;100982.16;4991462;28;20097;-79
2022/04/10 08:13:41;;;;;;;18.05;5.43;;;9.00;95.40;;;7.86;84.66;100986.66;4992527;28;20487;-79
2022/04/10 08:16:08;;;;;;;13.55;6.25;;;9.10;94.40;;;7.94;84.70;100989.44;4992297;28;20042;-79
2022/04/10 08:18:36;;;;;;;13.18;6.03;;;9.20;94.80;;;8.02;84.85;100981.38;4992303;28;20078;-79
2022/04/10 08:21:03;;;;;;;18.83;6.22;;;9.20;94.30;;;8.08;84.11;100986.19;4991576;28;20090;-79
2022/04/10 08:23:31;;;;;;;12.45;5.78;;;9.30;94.20;;;8.15;82.42;100975.56;4992120;28;20105;-79
2022/04/10 08:26:00;;;;;;;12.18;4.68;;;9.40;93.50;;;8.14;81.02;100974.69;4992000;28;20137;-79
2022/04/10 08:28:27;;;;;;;15.43;5.45;;;9.40;91.50;;;8.21;80.15;100981.19;4992253;28;20050;-79
2022/04/10 08:30:54;;;;;;;16.90;4.63;;;9.40;91.30;;;8.20;79.14;100982.19;4991327;28;20054;-79
2022/04/10 08:33:21;;;;;;;11.40;3.70;;;9.50;90.20;;;8.13;77.88;100994.69;4991480;28;20042;-79
2022/04/10 08:35:48;;;;;;;12.48;3.65;;;9.50;89.60;;;8.09;78.62;100990.59;4991739;28;20118;-79
2022/04/10 08:38:16;;;;;;;9.45;3.42;;;9.40;89.50;;;7.98;77.35;101007.09;4991901;28;20499;-79
2022/04/10 08:40:45;;;;;;;12.02;3.63;;;9.40;89.10;;;8.00;78.30;100996.97;4991111;28;20046;-79
2022/04/10 08:43:13;;;;;;;17.63;3.60;;;9.40;88.90;;;8.20;78.77;101001.16;4991854;28;20057;-79
2022/04/10 08:45:41;;;;;;;11.52;3.92;;;9.40;90.10;;;8.32;78.21;101006.34;4992048;28;20465;-79
2022/04/10 08:48:09;;;;;;;16.77;4.00;;;9.50;89.70;;;8.25;75.81;101003.44;4991586;28;20057;-79
2022/04/10 08:50:38;;;;;;;10.95;3.70;;;9.50;88.30;;;8.16;75.24;100999.78;4990973;28;20046;-79
2022/04/10 08:53:07;;;;;;;10.38;3.90;;;9.50;88.20;;;8.18;77.86;101003.19;4991653;28;20574;-79
2022/04/10 08:55:34;;;;;;;12.88;3.72;;;9.50;88.90;;;8.15;76.65;101013.53;4991348;28;20051;-79
2022/04/10 08:58:04;;;;;;;11.55;4.05;;;9.50;89.70;;;8.10;76.97;101013.13;4991495;28;20121;-79
2022/04/10 09:00:32;;;;;;;8.60;3.50;;;9.50;89.50;;;8.07;78.21;101010.72;4990973;28;20418;-79
2022/04/10 09:03:00;;;;;;;11.52;4.25;;;9.50;89.20;;;8.04;77.47;101014.59;4991119;28;20050;-79
2022/04/10 09:05:27;;;;;;;11.25;3.70;;;9.40;88.60;;;8.05;76.89;101010.03;4991253;28;20043;-79
2022/04/10 09:08:09;;;;;;;8.68;3.22;;;9.40;87.60;;;8.07;75.44;101025.13;4991564;28;20530;-79
2022/04/10 09:11:00;;;;;;;13.38;3.20;;;9.40;86.60;;;8.09;74.50;101015.00;4990526;28;20434;-79
2022/04/10 09:13:31;;;;;;;9.53;2.83;;;9.40;86.00;;;8.13;74.81;101016.38;4991194;28;20060;-79
2022/04/10 09:16:19;;;;;;;10.70;3.42;;;9.50;85.80;;;8.15;74.97;101008.94;4991014;28;20982;-79
2022/04/10 09:18:53;;;;;;;11.60;3.83;;;9.50;86.30;;;8.08;74.89;101012.44;4991381;28;20066;-79
2022/04/10 09:21:24;;;;;;;8.20;3.38;;;9.50;87.50;;;7.94;75.63;101020.13;4990231;28;20554;-79
2022/04/10 09:23:57;;;;;;;7.80;3.60;;;9.50;87.00;;;7.86;75.96;101033.56;4991195;28;20050;-79
2022/04/10 09:26:24;;;;;;;11.13;3.55;;;9.40;87.60;;;7.83;76.41;101026.59;4990917;28;20073;-79
2022/04/10 09:28:54;;;;;;;7.45;3.30;;;9.40;87.40;;;7.76;76.96;101024.66;4991032;28;20056;-79
2022/04/10 09:31:31;;;;;;;10.77;3.58;;;9.30;88.20;;;7.74;75.61;101032.94;4990271;28;20208;-79
2022/04/10 09:34:02;;;;;;;11.93;4.00;;;9.30;88.10;;;7.72;77.26;101029.53;4991059;28;20407;-79
2022/04/10 09:36:40;;;;;;;11.52;3.60;;;9.30;88.10;;;7.80;75.59;101026.06;4990731;28;20074;-79
2022/04/10 09:39:11;;;;;;;11.07;3.40;;;9.30;86.70;;;7.87;76.49;101031.72;4989476;28;20074;-79
2022/04/10 09:41:40;;;;;;;14.38;3.47;;;9.30;89.10;;;7.91;74.77;101027.69;4990003;28;20085;-79
2022/04/10 09:44:20;;;;;;;10.50;3.90;;;9.30;87.40;;;7.98;75.21;101028.78;4989931;28;20530;-79
2022/04/10 09:47:06;;;;;;;12.47;4.30;;;9.40;87.70;;;8.10;76.39;101021.28;4990861;28;20109;-79
2022/04/10 09:49:35;;;;;;;12.27;4.28;;;9.40;89.30;;;8.16;76.21;101020.63;4990578;28;20046;-79
2022/04/10 09:52:06;;;;;;;10.25;4.20;;;9.50;89.00;;;8.21;76.15;101030.00;4990055;28;20061;-79
2022/04/10 09:54:44;;;;;;;9.52;3.92;;;9.60;89.00;;;8.29;75.03;101025.66;4990876;28;20403;-79
2022/04/10 09:57:18;;;;;;;13.43;4.05;;;9.60;89.10;;;8.20;74.67;101025.56;4990520;28;20038;-79
2022/04/10 09:59:46;;;;;;;12.43;3.47;;;9.70;88.10;;;8.13;75.06;101020.94;4990187;28;20533;-79
2022/04/10 10:02:17;;;;;;;11.98;3.35;;;9.70;87.00;;;8.19;75.27;101025.75;4990264;28;20050;-79
2022/04/10 10:04:46;;;;;;;11.07;3.00;;;9.70;87.30;;;8.35;75.49;101022.31;4990492;28;20042;-79
2022/04/10 10:07:17;;;;;;;10.80;3.38;;;9.70;86.60;;;8.43;73.98;101016.97;4990509;28;20078;-79
2022/04/10 10:09:46;;;;;;;12.90;4.10;;;9.80;86.90;;;8.50;73.04;101034.31;4988743;28;20418;-79
2022/04/10 10:12:14;;;;;;;11.98;3.13;;;9.90;86.50;;;8.58;73.73;101019.97;4990170;28;20284;-79
2022/04/10 10:14:42;;;;;;;7.75;2.58;;;9.90;86.60;;;8.63;72.33;101027.66;4990600;28;20057;-79
2022/04/10 10:17:11;;;;;;;9.10;2.60;;;10.00;86.20;;;8.70;73.00;101006.97;4990550;28;20046;-79
2022/04/10 10:19:42;;;;;;;11.70;2.65;;;10.10;86.70;;;8.82;71.67;101016.56;4990053;28;20129;-79
2022/04/10 10:22:10;;;;;;;;;;;10.10;85.00;;;8.86;72.10;101017.94;4990434;28;20042;-79
2022/04/10 10:24:50;;;;;;;7.15;2.65;;;10.20;85.10;;;8.92;71.52;101005.59;4990144;28;20360;-79
2022/04/10 10:28:01;;;;;;;12.80;2.63;;;10.30;84.70;;;9.03;71.64;101009.91;4990475;28;20042;-79
2022/04/10 10:30:36;;;;;;;6.82;2.38;;;10.30;84.70;;;9.09;70.66;101001.09;4989524;28;20050;-79
2022/04/10 10:33:16;;;;;;;6.38;2.28;;;10.40;83.90;;;9.12;70.74;101001.63;4989989;28;20050;-79